createdAt,value
2017-09-02T00:01:52.593Z,6.60
2017-09-02T00:04:22.038Z,7.43
2017-09-02T00:06:51.451Z,9.13
2017-09-02T00:09:20.817Z,6.63
2017-09-02T00:11:50.357Z,6.30
2017-09-02T00:14:20.999Z,13.30
2017-09-02T00:16:50.527Z,6.60
2017-09-02T00:19:19.843Z,5.50
2017-09-02T00:21:49.184Z,7.47
2017-09-02T00:24:18.508Z,5.40
2017-09-02T00:26:48.076Z,8.30
2017-09-02T00:29:17.453Z,7.20
2017-09-02T00:31:46.830Z,7.10
2017-09-02T00:34:16.280Z,5.93
2017-09-02T00:36:45.674Z,8.97
2017-09-02T00:39:15.072Z,9.97
2017-09-02T00:41:44.467Z,7.90
2017-09-02T00:44:13.935Z,7.57
2017-09-02T00:46:43.316Z,7.13
2017-09-02T00:49:19.021Z,9.80
2017-09-02T00:51:48.424Z,8.97
2017-09-02T00:54:17.768Z,8.67
2017-09-02T00:56:47.371Z,8.83
2017-09-02T00:59:16.645Z,9.80
2017-09-02T01:01:46.060Z,10.63
2017-09-02T01:04:15.530Z,8.83
2017-09-02T01:06:45.186Z,13.13
2017-09-02T01:09:14.668Z,8.60
2017-09-02T01:11:44.399Z,12.77
2017-09-02T01:14:13.913Z,9.50
2017-09-02T01:16:43.277Z,8.27
2017-09-02T01:19:12.763Z,9.50
2017-09-02T01:21:42.128Z,11.43
2017-09-02T01:24:11.535Z,8.17
2017-09-02T01:26:41.614Z,7.97
2017-09-02T01:29:10.978Z,8.40
2017-09-02T01:31:40.584Z,9.10
2017-09-02T01:34:10.017Z,5.70
2017-09-02T01:36:39.950Z,10.33
2017-09-02T01:39:09.289Z,7.37
2017-09-02T01:41:38.772Z,7.90
2017-09-02T01:44:08.174Z,6.57
2017-09-02T01:46:38.014Z,9.43
2017-09-02T01:49:07.481Z,10.27
2017-09-02T01:51:37.070Z,10.30
2017-09-02T01:54:06.395Z,6.00
2017-09-02T01:56:35.833Z,7.90
2017-09-02T01:59:05.249Z,8.20
2017-09-02T02:01:34.716Z,8.23
2017-09-02T02:04:04.322Z,6.50
2017-09-02T02:06:34.606Z,8.60
2017-09-02T02:09:04.266Z,9.83
2017-09-02T02:11:33.731Z,7.50
2017-09-02T02:14:03.052Z,8.53
2017-09-02T02:16:32.809Z,5.70
2017-09-02T02:19:02.232Z,10.60
2017-09-02T02:21:31.707Z,6.03
2017-09-02T02:24:01.590Z,7.33
2017-09-02T02:26:31.155Z,7.43
2017-09-02T02:29:00.499Z,7.00
2017-09-02T02:31:29.987Z,7.30
2017-09-02T02:33:59.369Z,6.93
2017-09-02T02:36:28.920Z,8.00
2017-09-02T02:39:04.648Z,12.60
2017-09-02T02:41:34.124Z,7.50
2017-09-02T02:44:03.601Z,9.40
2017-09-02T02:46:33.418Z,6.73
2017-09-02T02:49:02.926Z,8.13
2017-09-02T02:51:32.361Z,5.43
2017-09-02T02:54:01.795Z,10.57
2017-09-02T02:56:31.962Z,10.53
2017-09-02T02:59:01.349Z,6.10
2017-09-02T03:01:30.962Z,10.80
2017-09-02T03:04:00.420Z,10.53
2017-09-02T03:06:29.934Z,10.20
2017-09-02T03:08:59.327Z,9.20
2017-09-02T03:11:29.317Z,7.13
2017-09-02T03:13:58.743Z,7.40
2017-09-02T03:16:28.406Z,8.43
2017-09-02T03:19:00.122Z,8.43
2017-09-02T03:21:29.821Z,7.90
2017-09-02T03:23:59.526Z,6.73
2017-09-02T03:26:29.224Z,6.33
2017-09-02T03:28:58.652Z,11.23
2017-09-02T03:31:28.164Z,6.53
2017-09-02T03:33:57.523Z,5.93
2017-09-02T03:36:26.888Z,7.67
2017-09-02T03:38:56.409Z,8.13
2017-09-02T03:41:25.799Z,5.90
2017-09-02T03:43:55.533Z,11.53
2017-09-02T03:46:25.991Z,5.57
2017-09-02T03:48:55.512Z,6.70
2017-09-02T03:51:25.136Z,7.27
2017-09-02T03:53:54.470Z,9.93
2017-09-02T03:56:24.037Z,7.97
2017-09-02T03:58:53.504Z,6.70
2017-09-02T04:01:23.031Z,7.60
2017-09-02T04:03:52.468Z,6.47
2017-09-02T04:06:22.787Z,4.93
2017-09-02T04:08:52.418Z,7.20
2017-09-02T04:11:21.939Z,8.53
2017-09-02T04:13:51.368Z,8.40
2017-09-02T04:16:24.250Z,5.73
2017-09-02T04:18:56.360Z,8.57
2017-09-02T04:21:25.969Z,6.70
2017-09-02T04:23:55.454Z,6.83
2017-09-02T04:26:25.992Z,6.17
2017-09-02T04:28:55.336Z,9.10
2017-09-02T04:31:24.740Z,5.73
2017-09-02T04:33:54.048Z,10.37
2017-09-02T04:36:23.452Z,10.83
2017-09-02T04:38:52.788Z,9.50
2017-09-02T04:41:22.497Z,9.20
2017-09-02T04:43:51.860Z,6.53
2017-09-02T04:46:25.135Z,7.00
2017-09-02T04:49:00.546Z,6.33
2017-09-02T04:51:41.408Z,4.87
2017-09-02T04:54:10.744Z,12.53
2017-09-02T04:56:40.063Z,7.07
2017-09-02T04:59:09.438Z,8.50
2017-09-02T05:01:38.945Z,6.03
2017-09-02T05:04:08.384Z,6.93
2017-09-02T05:06:37.729Z,8.80
2017-09-02T05:09:07.094Z,5.37
2017-09-02T05:11:36.448Z,7.43
2017-09-02T05:14:06.020Z,8.27
2017-09-02T05:16:36.152Z,6.43
2017-09-02T05:19:06.698Z,6.07
2017-09-02T05:21:37.098Z,6.60
2017-09-02T05:24:06.461Z,7.80
2017-09-02T05:26:35.820Z,5.47
2017-09-02T05:29:05.200Z,7.43
2017-09-02T05:31:34.588Z,5.20
2017-09-02T05:34:03.881Z,5.43
2017-09-02T05:36:33.268Z,8.80
2017-09-02T05:39:02.773Z,5.67
2017-09-02T05:41:32.336Z,6.80
2017-09-02T05:44:01.945Z,3.23
2017-09-02T05:46:31.534Z,4.73
2017-09-02T05:49:01.395Z,4.10
2017-09-02T05:51:30.840Z,7.00
2017-09-02T05:54:00.169Z,5.20
2017-09-02T05:56:29.762Z,3.63
2017-09-02T05:58:59.133Z,15.03
2017-09-02T06:01:30.577Z,7.10
2017-09-02T06:04:00.161Z,5.83
2017-09-02T06:06:29.524Z,4.03
2017-09-02T06:08:58.820Z,4.70
2017-09-02T06:11:28.137Z,4.73
2017-09-02T06:13:59.348Z,6.50
2017-09-02T06:16:28.868Z,8.43
2017-09-02T06:18:58.273Z,6.03
2017-09-02T06:21:27.705Z,5.73
2017-09-02T06:23:57.033Z,2.70
2017-09-02T06:26:26.434Z,5.03
2017-09-02T06:28:56.105Z,4.50
2017-09-02T06:31:25.584Z,8.13
2017-09-02T06:33:54.937Z,4.67
2017-09-02T06:36:24.443Z,3.83
2017-09-02T06:38:55.773Z,3.47
2017-09-02T06:41:25.320Z,5.60
2017-09-02T06:43:55.183Z,3.83
2017-09-02T06:46:27.566Z,4.83
2017-09-02T06:48:57.249Z,4.57
2017-09-02T06:51:26.730Z,3.80
2017-09-02T06:54:09.574Z,5.03
2017-09-02T06:56:38.993Z,5.10
2017-09-02T06:59:08.318Z,5.50
2017-09-02T07:01:41.322Z,4.23
2017-09-02T07:04:27.643Z,5.10
2017-09-02T07:06:57.665Z,5.67
2017-09-02T07:09:27.192Z,3.33
2017-09-02T07:11:56.654Z,3.20
2017-09-02T07:14:26.283Z,2.67
2017-09-02T07:16:55.803Z,6.17
2017-09-02T07:19:25.387Z,6.90
2017-09-02T07:21:54.893Z,2.70
2017-09-02T07:24:24.303Z,6.63
2017-09-02T07:26:56.192Z,6.40
2017-09-02T07:29:25.761Z,4.63
2017-09-02T07:31:55.471Z,6.40
2017-09-02T07:34:24.973Z,4.50
2017-09-02T07:37:04.685Z,5.33
2017-09-02T07:39:39.269Z,3.93
2017-09-02T07:42:09.296Z,8.43
2017-09-02T07:44:38.737Z,4.87
2017-09-02T07:47:08.599Z,6.47
2017-09-02T07:49:38.901Z,9.63
2017-09-02T07:52:08.336Z,3.97
2017-09-02T07:54:37.740Z,5.60
2017-09-02T07:57:30.858Z,8.10
2017-09-02T08:00:00.525Z,4.50
2017-09-02T08:02:30.294Z,4.33
2017-09-02T08:05:01.164Z,6.97
2017-09-02T08:07:33.759Z,4.73
2017-09-02T08:10:03.528Z,7.23
2017-09-02T08:12:45.496Z,4.77
2017-09-02T08:15:19.191Z,6.27
2017-09-02T08:17:48.536Z,4.10
2017-09-02T08:20:19.113Z,5.00
2017-09-02T08:22:48.856Z,5.43
2017-09-02T08:25:19.736Z,4.87
2017-09-02T08:27:51.423Z,10.73
2017-09-02T08:30:32.932Z,3.30
2017-09-02T08:33:07.635Z,6.37
2017-09-02T08:35:37.284Z,4.73
2017-09-02T08:38:08.400Z,3.50
2017-09-02T08:40:42.089Z,3.43
2017-09-02T08:43:12.067Z,3.10
2017-09-02T08:45:48.453Z,3.67
2017-09-02T08:48:20.369Z,4.00
2017-09-02T08:50:50.459Z,3.00
2017-09-02T08:53:26.025Z,7.23
2017-09-02T08:56:25.397Z,4.50
2017-09-02T08:59:00.126Z,5.80
2017-09-02T09:01:30.745Z,7.07
2017-09-02T09:04:04.388Z,6.00
2017-09-02T09:06:35.668Z,7.03
2017-09-02T09:09:05.715Z,5.17
2017-09-02T09:11:35.101Z,3.03
2017-09-02T09:14:04.462Z,8.13
2017-09-02T09:16:35.048Z,3.97
2017-09-02T09:19:05.353Z,3.83
2017-09-02T09:21:34.800Z,4.97
2017-09-02T09:24:04.221Z,5.30
2017-09-02T09:26:34.053Z,6.10
2017-09-02T09:29:03.623Z,7.57
2017-09-02T09:31:34.101Z,3.93
2017-09-02T09:34:03.496Z,9.13
2017-09-02T09:36:35.536Z,4.20
2017-09-02T09:39:05.637Z,5.73
2017-09-02T09:41:35.256Z,3.53
2017-09-02T09:44:05.786Z,2.07
2017-09-02T09:46:35.234Z,5.13
2017-09-02T09:49:05.100Z,4.30
2017-09-02T09:51:34.544Z,5.73
2017-09-02T09:54:03.964Z,2.80
2017-09-02T09:56:33.380Z,2.97
2017-09-02T09:59:03.057Z,5.17
2017-09-02T10:01:33.027Z,5.37
2017-09-02T10:04:02.505Z,4.13
2017-09-02T10:06:32.545Z,3.53
2017-09-02T10:09:02.063Z,4.37
2017-09-02T10:11:32.364Z,2.43
2017-09-02T10:14:01.769Z,4.20
2017-09-02T10:16:32.256Z,2.93
2017-09-02T10:19:01.899Z,2.20
2017-09-02T10:21:31.315Z,4.33
2017-09-02T10:24:03.344Z,2.53
2017-09-02T10:26:32.980Z,3.80
2017-09-02T10:29:02.521Z,2.63
2017-09-02T10:31:34.161Z,3.60
2017-09-02T10:34:06.266Z,2.70
2017-09-02T10:36:35.892Z,3.90
2017-09-02T10:39:05.328Z,3.10
2017-09-02T10:41:36.874Z,4.20
2017-09-02T10:44:06.232Z,3.03
2017-09-02T10:46:35.939Z,4.03
2017-09-02T10:49:05.749Z,2.00
2017-09-02T10:51:35.423Z,6.50
2017-09-02T10:54:04.798Z,8.17
2017-09-02T10:56:34.472Z,2.83
2017-09-02T10:59:04.380Z,4.43
2017-09-02T11:01:34.249Z,3.10
2017-09-02T11:04:03.904Z,3.43
2017-09-02T11:06:33.478Z,3.80
2017-09-02T11:09:09.319Z,1.73
2017-09-02T11:11:38.672Z,3.23
2017-09-02T11:14:08.003Z,5.37
2017-09-02T11:16:38.711Z,4.83
2017-09-02T11:19:08.380Z,4.43
2017-09-02T11:21:38.653Z,6.90
2017-09-02T11:24:08.409Z,3.27
2017-09-02T11:26:38.572Z,1.97
2017-09-02T11:29:08.580Z,3.13
2017-09-02T11:31:51.877Z,4.80
2017-09-02T11:34:22.305Z,3.63
2017-09-02T11:36:51.624Z,4.70
2017-09-02T11:39:20.965Z,3.00
2017-09-02T11:41:50.305Z,3.17
2017-09-02T11:44:19.634Z,9.07
2017-09-02T11:46:49.472Z,3.03
2017-09-02T11:49:19.580Z,4.17
2017-09-02T11:51:49.082Z,2.80
2017-09-02T11:54:18.492Z,3.57
2017-09-02T11:56:48.466Z,2.90
2017-09-02T11:59:18.540Z,3.33
2017-09-02T12:01:48.194Z,2.23
2017-09-02T12:04:17.775Z,3.63
2017-09-02T12:06:47.909Z,4.53
2017-09-02T12:09:17.404Z,3.20
2017-09-02T12:11:47.247Z,3.53
2017-09-02T12:14:16.836Z,3.97
2017-09-02T12:16:46.721Z,3.20
2017-09-02T12:19:16.199Z,2.43
2017-09-02T12:21:48.195Z,5.47
2017-09-02T12:24:17.580Z,2.00
2017-09-02T12:26:47.270Z,2.70
2017-09-02T12:29:17.531Z,3.00
2017-09-02T12:31:47.054Z,2.50
2017-09-02T12:34:17.390Z,2.40
2017-09-02T12:36:55.708Z,3.50
2017-09-02T12:39:32.654Z,2.47
2017-09-02T12:42:04.409Z,5.93
2017-09-02T12:44:34.189Z,2.80
2017-09-02T12:47:04.415Z,5.37
2017-09-02T12:49:45.144Z,2.40
2017-09-02T12:52:15.432Z,4.77
2017-09-02T12:54:44.855Z,3.03
2017-09-02T12:57:14.213Z,1.47
2017-09-02T12:59:43.538Z,1.70
2017-09-02T13:02:12.928Z,1.33
2017-09-02T13:04:42.291Z,2.50
2017-09-02T13:07:11.706Z,2.13
2017-09-02T13:09:41.024Z,6.10
2017-09-02T13:12:10.428Z,3.10
2017-09-02T13:14:39.770Z,2.60
2017-09-02T13:17:09.272Z,2.30
2017-09-02T13:19:38.718Z,1.87
2017-09-02T13:22:08.518Z,3.00
2017-09-02T13:24:37.853Z,1.60
2017-09-02T13:27:07.474Z,3.33
2017-09-02T13:29:36.960Z,2.37
2017-09-02T13:32:06.298Z,4.30
2017-09-02T13:34:35.626Z,2.33
2017-09-02T13:37:05.667Z,1.93
2017-09-02T13:39:34.993Z,1.47
2017-09-02T13:42:04.391Z,3.83
2017-09-02T13:44:33.916Z,2.77
2017-09-02T13:47:04.228Z,2.50
2017-09-02T13:49:33.624Z,4.60
2017-09-02T13:52:02.961Z,6.10
2017-09-02T13:54:32.264Z,3.30
2017-09-02T13:57:01.564Z,3.43
2017-09-02T13:59:30.897Z,2.67
2017-09-02T14:02:00.294Z,1.93
2017-09-02T14:04:30.341Z,2.40
2017-09-02T14:06:59.813Z,2.80
2017-09-02T14:09:29.316Z,2.17
2017-09-02T14:11:58.894Z,3.80
2017-09-02T14:14:28.209Z,2.03
2017-09-02T14:16:57.701Z,3.13
2017-09-02T14:19:27.356Z,2.43
2017-09-02T14:21:57.002Z,3.50
2017-09-02T14:24:26.340Z,2.40
2017-09-02T14:26:55.723Z,2.27
2017-09-02T14:29:25.046Z,2.30
2017-09-02T14:31:54.508Z,3.20
2017-09-02T14:34:23.840Z,1.80
2017-09-02T14:36:53.355Z,1.83
2017-09-02T14:39:22.792Z,5.10
2017-09-02T14:41:52.146Z,2.77
2017-09-02T14:44:21.551Z,2.43
2017-09-02T14:46:51.045Z,2.30
2017-09-02T14:49:20.447Z,3.30
2017-09-02T14:51:49.881Z,3.33
2017-09-02T14:54:19.226Z,2.20
2017-09-02T14:56:48.650Z,2.43
2017-09-02T14:59:18.004Z,3.07
2017-09-02T15:01:47.443Z,2.27
2017-09-02T15:04:16.757Z,3.07
2017-09-02T15:06:46.366Z,2.70
2017-09-02T15:09:15.803Z,2.43
2017-09-02T15:11:45.156Z,4.70
2017-09-02T15:14:14.468Z,1.80
2017-09-02T15:16:43.848Z,3.10
2017-09-02T15:19:13.277Z,2.83
2017-09-02T15:21:42.843Z,2.17
2017-09-02T15:24:12.681Z,4.07
2017-09-02T15:26:42.162Z,2.13
2017-09-02T15:29:11.508Z,6.00
2017-09-02T15:31:40.849Z,2.63
2017-09-02T15:34:10.201Z,2.43
2017-09-02T15:36:39.643Z,7.83
2017-09-02T15:39:09.021Z,4.33
2017-09-02T15:41:38.352Z,2.07
2017-09-02T15:44:07.645Z,2.93
2017-09-02T15:46:37.015Z,3.00
2017-09-02T15:49:06.309Z,1.70
2017-09-02T15:51:35.692Z,2.90
2017-09-02T15:54:05.004Z,2.10
2017-09-02T15:56:34.324Z,3.77
2017-09-02T15:59:03.625Z,5.03
2017-09-02T16:01:33.116Z,1.80
2017-09-02T16:04:02.410Z,3.47
2017-09-02T16:06:31.859Z,1.93
2017-09-02T16:09:01.178Z,2.00
2017-09-02T16:11:30.580Z,2.07
2017-09-02T16:13:59.949Z,4.63
2017-09-02T16:16:29.326Z,2.00
2017-09-02T16:18:58.945Z,3.60
2017-09-02T16:21:29.666Z,3.80
2017-09-02T16:23:59.201Z,4.70
2017-09-02T16:26:28.660Z,3.90
2017-09-02T16:28:58.052Z,2.90
2017-09-02T16:31:27.486Z,2.90
2017-09-02T16:33:57.061Z,3.60
2017-09-02T16:36:27.009Z,1.67
2017-09-02T16:38:56.368Z,10.50
2017-09-02T16:41:25.829Z,6.00
2017-09-02T16:43:55.121Z,4.80
2017-09-02T16:46:24.511Z,2.20
2017-09-02T16:48:53.848Z,2.90
2017-09-02T16:51:23.228Z,4.40
2017-09-02T16:53:52.559Z,3.10
2017-09-02T16:56:21.997Z,2.63
2017-09-02T16:58:51.470Z,1.97
2017-09-02T17:01:20.881Z,3.13
2017-09-02T17:03:50.481Z,2.27
2017-09-02T17:06:19.856Z,2.70
2017-09-02T17:08:49.606Z,4.50
2017-09-02T17:11:19.341Z,2.10
2017-09-02T17:13:48.757Z,4.20
2017-09-02T17:16:18.283Z,2.80
2017-09-02T17:18:47.639Z,3.50
2017-09-02T17:21:17.027Z,3.87
2017-09-02T17:23:46.670Z,2.90
2017-09-02T17:26:15.981Z,2.33
2017-09-02T17:28:45.381Z,3.33
2017-09-02T17:31:15.397Z,3.13
2017-09-02T17:33:47.252Z,2.83
2017-09-02T17:36:17.079Z,3.27
2017-09-02T17:38:46.352Z,2.63
2017-09-02T17:41:15.980Z,1.93
2017-09-02T17:43:45.363Z,2.23
2017-09-02T17:46:15.075Z,2.63
2017-09-02T17:48:44.764Z,4.17
2017-09-02T17:51:14.984Z,2.20
2017-09-02T17:53:44.781Z,3.13
2017-09-02T17:56:14.480Z,3.47
2017-09-02T17:58:44.102Z,2.40
2017-09-02T18:01:14.667Z,6.50
2017-09-02T18:03:44.261Z,4.50
2017-09-02T18:06:15.009Z,5.30
2017-09-02T18:08:44.436Z,6.93
2017-09-02T18:11:13.981Z,4.80
2017-09-02T18:13:47.202Z,6.60
2017-09-02T18:16:17.756Z,5.93
2017-09-02T18:18:47.118Z,3.90
2017-09-02T18:21:16.711Z,4.60
2017-09-02T18:24:08.159Z,3.70
2017-09-02T18:26:39.860Z,5.67
2017-09-02T18:29:09.493Z,8.40
2017-09-02T18:31:38.984Z,5.47
2017-09-02T18:34:08.457Z,9.70
2017-09-02T18:36:37.848Z,4.50
2017-09-02T18:39:07.261Z,6.20
2017-09-02T18:41:38.049Z,5.20
2017-09-02T18:44:08.192Z,5.97
2017-09-02T18:46:37.922Z,7.23
2017-09-02T18:49:07.880Z,5.03
2017-09-02T18:51:37.271Z,5.60
2017-09-02T18:54:06.638Z,4.80
2017-09-02T18:56:36.004Z,5.40
2017-09-02T18:59:06.261Z,3.67
2017-09-02T19:01:36.152Z,4.37
2017-09-02T19:04:06.733Z,6.47
2017-09-02T19:06:36.817Z,3.30
2017-09-02T19:09:12.825Z,3.10
2017-09-02T19:11:42.544Z,4.03
2017-09-02T19:14:12.192Z,5.80
2017-09-02T19:16:41.736Z,5.20
2017-09-02T19:19:13.059Z,8.00
2017-09-02T19:21:45.511Z,6.47
2017-09-02T19:24:21.065Z,7.33
2017-09-02T19:26:50.973Z,6.77
2017-09-02T19:29:23.345Z,6.70
2017-09-02T19:31:59.196Z,3.60
2017-09-02T19:34:32.641Z,5.93
2017-09-02T19:37:05.925Z,5.60
2017-09-02T19:39:37.413Z,4.93
2017-09-02T19:42:13.800Z,6.37
2017-09-02T19:44:45.050Z,4.17
2017-09-02T19:47:21.201Z,4.23
2017-09-02T19:49:56.932Z,4.90
2017-09-02T19:52:31.484Z,4.00
2017-09-02T19:55:05.591Z,5.23
2017-09-02T19:57:37.694Z,5.20
2017-09-02T20:00:14.126Z,7.10
2017-09-02T20:02:49.564Z,5.67
2017-09-02T20:05:24.399Z,7.20
2017-09-02T20:07:58.225Z,6.07
2017-09-02T20:10:36.817Z,7.60
2017-09-02T20:13:08.234Z,5.37
2017-09-02T20:15:39.968Z,6.03
2017-09-02T20:18:17.054Z,9.50
2017-09-02T20:20:50.545Z,12.20
2017-09-02T20:23:22.751Z,17.20
2017-09-02T20:25:56.168Z,21.40
2017-09-02T20:28:28.126Z,29.70
2017-09-02T20:31:01.536Z,34.07
2017-09-02T20:33:34.925Z,37.00
2017-09-02T20:36:07.360Z,43.63
2017-09-02T20:38:38.437Z,45.00
2017-09-02T20:41:22.779Z,47.57
2017-09-02T20:44:08.753Z,34.60
2017-09-02T20:46:49.284Z,35.53
2017-09-02T20:52:05.015Z,35.30
2017-09-02T20:54:34.736Z,35.00
2017-09-02T20:57:10.293Z,34.03
2017-09-02T20:59:44.504Z,36.40
2017-09-02T21:02:15.504Z,33.73
2017-09-02T21:04:50.980Z,30.63
2017-09-02T21:07:21.722Z,27.00
2017-09-02T21:09:51.350Z,28.73
2017-09-02T21:12:22.836Z,26.10
2017-09-02T21:14:55.641Z,18.37
2017-09-02T21:17:30.195Z,21.33
2017-09-02T21:20:01.237Z,22.70
2017-09-02T21:22:31.599Z,22.67
2017-09-02T21:25:03.838Z,18.60
2017-09-02T21:27:38.642Z,20.10
2017-09-02T21:30:15.657Z,19.97
2017-09-02T21:32:45.696Z,15.50
2017-09-02T21:35:15.431Z,19.53
2017-09-02T21:37:50.293Z,13.73
2017-09-02T21:40:22.016Z,14.37
2017-09-02T21:42:53.117Z,17.60
2017-09-02T21:45:29.960Z,12.60
2017-09-02T21:48:02.957Z,18.33
2017-09-02T21:50:34.234Z,15.20
2017-09-02T21:53:08.668Z,16.23
2017-09-02T21:55:48.166Z,18.30
2017-09-02T21:58:22.259Z,21.70
2017-09-02T22:00:58.522Z,17.80
2017-09-02T22:03:35.513Z,15.50
2017-09-02T22:06:11.452Z,17.93
2017-09-02T22:08:44.083Z,15.00
2017-09-02T22:11:16.089Z,17.00
2017-09-02T22:13:52.756Z,15.27
2017-09-02T22:16:24.306Z,18.93
2017-09-02T22:18:54.421Z,16.23
2017-09-02T22:21:23.851Z,15.00
2017-09-02T22:24:03.740Z,19.27
2017-09-02T22:26:35.300Z,19.90
2017-09-02T22:29:05.371Z,15.23
2017-09-02T22:31:41.081Z,25.90
2017-09-02T22:34:19.687Z,16.93
2017-09-02T22:36:58.175Z,26.63
2017-09-02T22:39:33.919Z,23.83
2017-09-02T22:42:06.592Z,20.37
2017-09-02T22:44:40.364Z,23.13
2017-09-02T22:47:12.518Z,21.67
2017-09-02T22:49:47.030Z,19.00
2017-09-02T22:52:17.714Z,24.63
2017-09-02T22:54:47.851Z,23.00
2017-09-02T22:57:21.160Z,33.80
2017-09-02T23:00:00.398Z,21.70
2017-09-02T23:02:33.950Z,26.63
2017-09-02T23:05:06.921Z,26.03
2017-09-02T23:07:40.057Z,32.33
2017-09-02T23:10:13.970Z,29.07
2017-09-02T23:12:45.697Z,22.53
2017-09-02T23:15:17.508Z,24.13
2017-09-02T23:17:47.227Z,26.13
2017-09-02T23:20:20.157Z,16.77
2017-09-02T23:25:29.797Z,24.53
2017-09-02T23:28:09.038Z,17.33
2017-09-02T23:31:42.692Z,20.13
2017-09-02T23:34:12.196Z,20.70
2017-09-02T23:36:51.889Z,19.70
2017-09-02T23:39:23.555Z,17.60
2017-09-02T23:41:58.766Z,16.73
2017-09-02T23:44:35.147Z,14.83
2017-09-02T23:47:05.546Z,18.07
2017-09-02T23:49:40.714Z,17.07
2017-09-02T23:52:13.748Z,14.07
2017-09-02T23:54:49.189Z,15.10
2017-09-02T23:57:21.004Z,9.13
2017-09-02T23:59:51.861Z,13.43
